createdAt,value
2023-03-31T00:04:30.693Z,97564.44
2023-03-31T00:10:16.847Z,97560.41
2023-03-31T00:15:44.597Z,97549.50
2023-03-31T00:21:21.650Z,97530.72
2023-03-31T00:26:50.569Z,97524.84
2023-03-31T00:32:18.582Z,97517.59
2023-03-31T00:37:43.675Z,97508.91
2023-03-31T00:43:11.616Z,97493.81
2023-03-31T00:48:36.635Z,97505.22
2023-03-31T00:54:06.697Z,97484.22
2023-03-31T00:59:44.635Z,97466.75
2023-03-31T01:05:11.650Z,97457.50
2023-03-31T01:10:36.655Z,97462.16
2023-03-31T01:16:09.629Z,97442.16
2023-03-31T01:22:03.690Z,97444.28
2023-03-31T01:27:50.737Z,97431.09
2023-03-31T01:33:52.714Z,97432.91
2023-03-31T01:39:38.685Z,97435.06
2023-03-31T01:45:18.654Z,97411.19
2023-03-31T01:50:47.663Z,97409.19
2023-03-31T01:56:18.664Z,97407.84
2023-03-31T02:01:52.795Z,97401.16
2023-03-31T02:07:19.639Z,97388.50
2023-03-31T02:12:50.728Z,97379.78
2023-03-31T02:18:23.653Z,97368.53
2023-03-31T02:23:48.659Z,97373.25
2023-03-31T02:29:14.620Z,97344.53
2023-03-31T02:34:42.665Z,97347.41
2023-03-31T02:40:11.638Z,97337.84
2023-03-31T02:45:53.682Z,97328.66
2023-03-31T02:51:45.654Z,97329.66
2023-03-31T02:57:39.676Z,97316.00
2023-03-31T03:03:19.767Z,97299.69
2023-03-31T03:09:03.642Z,97297.66
2023-03-31T03:14:40.659Z,97288.56
2023-03-31T03:20:08.683Z,97304.03
2023-03-31T03:25:36.654Z,97290.81
2023-03-31T03:31:02.728Z,97293.19
2023-03-31T03:36:26.764Z,97292.41
2023-03-31T03:41:54.707Z,97287.56
2023-03-31T03:47:18.838Z,97284.94
2023-03-31T03:52:43.664Z,97281.50
2023-03-31T03:58:10.699Z,97281.19
2023-03-31T04:03:37.726Z,97275.88
2023-03-31T04:09:02.832Z,97274.56
2023-03-31T04:14:37.741Z,97270.88
2023-03-31T04:20:08.743Z,97262.97
2023-03-31T04:25:37.716Z,97246.03
2023-03-31T04:31:05.692Z,97242.69
2023-03-31T04:36:30.918Z,97226.94
2023-03-31T04:41:55.723Z,97221.41
2023-03-31T04:47:22.747Z,97214.53
2023-03-31T04:52:49.864Z,97208.16
2023-03-31T04:58:14.678Z,97197.41
2023-03-31T05:03:44.784Z,97184.84
2023-03-31T05:09:10.790Z,97157.13
2023-03-31T05:14:42.760Z,97141.88
2023-03-31T05:20:12.759Z,97141.03
2023-03-31T05:25:43.752Z,97137.69
2023-03-31T05:31:11.806Z,97117.22
2023-03-31T05:36:54.782Z,97118.88
2023-03-31T05:42:19.749Z,97109.47
2023-03-31T05:47:44.832Z,97118.84
2023-03-31T05:53:11.815Z,97123.47
2023-03-31T05:58:38.769Z,97126.81
2023-03-31T06:04:04.072Z,97113.69
2023-03-31T06:09:45.863Z,97112.63
2023-03-31T06:15:19.847Z,97100.88
2023-03-31T06:20:51.828Z,97066.72
2023-03-31T06:26:22.839Z,97052.06
2023-03-31T06:31:50.942Z,97045.97
2023-03-31T06:37:15.876Z,97014.84
2023-03-31T06:42:41.972Z,97000.47
2023-03-31T06:48:14.788Z,96975.53
2023-03-31T06:53:39.785Z,96977.94
2023-03-31T06:59:33.785Z,96993.34
2023-03-31T07:05:01.812Z,96999.91
2023-03-31T07:10:29.796Z,96992.28
2023-03-31T07:15:57.831Z,96994.44
2023-03-31T07:21:24.799Z,96981.81
2023-03-31T07:26:49.831Z,96984.56
2023-03-31T07:32:13.835Z,96986.69
2023-03-31T07:37:44.841Z,96961.88
2023-03-31T07:43:09.818Z,96949.31
2023-03-31T07:48:35.915Z,96938.81
2023-03-31T07:54:10.824Z,96932.84
2023-03-31T07:59:36.809Z,96928.94
2023-03-31T08:05:03.814Z,96920.09
2023-03-31T08:10:36.017Z,96912.03
2023-03-31T08:16:08.100Z,96915.41
2023-03-31T08:21:32.884Z,96900.34
2023-03-31T08:26:59.941Z,96880.25
2023-03-31T08:32:24.891Z,96876.66
2023-03-31T08:37:49.830Z,96866.78
2023-03-31T08:43:23.851Z,96857.66
2023-03-31T08:49:02.865Z,96855.53
2023-03-31T08:54:39.025Z,96838.56
2023-03-31T09:00:13.906Z,96826.97
2023-03-31T09:05:59.996Z,96820.97
2023-03-31T09:11:43.839Z,96801.44
2023-03-31T09:17:22.920Z,96806.69
2023-03-31T09:22:51.836Z,96785.19
2023-03-31T09:28:27.888Z,96778.94
2023-03-31T09:33:58.878Z,96779.56
2023-03-31T09:39:24.857Z,96772.72
2023-03-31T09:44:55.869Z,96754.03
2023-03-31T09:50:25.152Z,96757.72
2023-03-31T09:56:04.272Z,96737.81
2023-03-31T10:01:33.955Z,96726.19
2023-03-31T10:07:01.934Z,96712.91
2023-03-31T10:12:30.956Z,96709.13
2023-03-31T10:18:01.180Z,96700.84
2023-03-31T10:23:36.894Z,96700.22
2023-03-31T10:29:02.943Z,96686.13
2023-03-31T10:39:55.910Z,96686.69
2023-03-31T10:45:37.078Z,96678.00
2023-03-31T10:51:04.183Z,96669.69
2023-03-31T10:56:49.706Z,96663.69
2023-03-31T11:02:30.902Z,96662.63
2023-03-31T11:08:11.251Z,96653.97
2023-03-31T11:13:51.349Z,96649.44
2023-03-31T11:19:30.229Z,96649.81
2023-03-31T11:25:28.884Z,96646.53
2023-03-31T11:31:06.399Z,96637.22
2023-03-31T11:36:48.744Z,96647.38
2023-03-31T11:42:23.977Z,96632.03
2023-03-31T11:47:57.068Z,96637.00
2023-03-31T11:53:27.927Z,96606.63
2023-03-31T11:58:58.928Z,96597.38
2023-03-31T12:04:29.948Z,96593.06
2023-03-31T12:10:02.918Z,96609.06
2023-03-31T12:15:36.133Z,96585.47
2023-03-31T12:21:06.923Z,96567.88
2023-03-31T12:26:45.943Z,96559.13
2023-03-31T12:32:14.930Z,96547.81
2023-03-31T12:38:04.973Z,96542.44
2023-03-31T12:43:49.932Z,96525.50
2023-03-31T12:49:26.923Z,96515.59
2023-03-31T12:55:27.000Z,96506.28
2023-03-31T13:00:52.096Z,96500.53
2023-03-31T13:06:20.946Z,96493.59
2023-03-31T13:12:01.175Z,96466.69
2023-03-31T13:17:33.990Z,96482.03
2023-03-31T13:23:04.030Z,96468.59
2023-03-31T13:28:42.957Z,96488.88
2023-03-31T13:34:10.940Z,96482.91
2023-03-31T13:40:11.966Z,96476.19
2023-03-31T13:45:54.146Z,96489.69
2023-03-31T13:51:32.991Z,96493.13
2023-03-31T13:57:12.009Z,96481.59
2023-03-31T14:03:04.059Z,96490.25
2023-03-31T14:08:30.993Z,96499.28
2023-03-31T14:14:08.948Z,96500.53
2023-03-31T14:19:57.947Z,96502.19
2023-03-31T14:25:31.015Z,96498.22
2023-03-31T14:31:05.077Z,96486.81
2023-03-31T14:36:41.027Z,96491.41
2023-03-31T14:42:09.037Z,96506.50
2023-03-31T14:47:37.071Z,96487.88
2023-03-31T14:53:07.995Z,96477.69
2023-03-31T14:58:37.029Z,96478.34
2023-03-31T15:04:05.038Z,96471.91
2023-03-31T15:09:44.201Z,96479.31
2023-03-31T15:15:14.488Z,96476.59
2023-03-31T15:20:51.029Z,96464.53
2023-03-31T15:26:27.990Z,96458.56
2023-03-31T15:31:57.188Z,96460.03
2023-03-31T15:37:29.036Z,96451.94
2023-03-31T15:48:35.037Z,96455.16
2023-03-31T15:54:03.182Z,96453.69
2023-03-31T15:59:51.266Z,96454.34
2023-03-31T16:05:40.496Z,96453.34
2023-03-31T16:11:23.163Z,96454.97
2023-03-31T16:16:57.028Z,96447.41
2023-03-31T16:22:23.170Z,96443.78
2023-03-31T16:27:53.106Z,96442.56
2023-03-31T16:33:22.252Z,96462.31
2023-03-31T16:38:47.053Z,96454.56
2023-03-31T16:44:13.033Z,96461.19
2023-03-31T16:49:41.042Z,96460.88
2023-03-31T16:55:06.372Z,96462.44
2023-03-31T17:00:31.047Z,96476.38
2023-03-31T17:06:00.074Z,96475.19
2023-03-31T17:11:26.421Z,96470.44
2023-03-31T17:16:50.143Z,96481.03
2023-03-31T17:22:18.094Z,96488.94
2023-03-31T17:27:44.088Z,96495.59
2023-03-31T17:33:09.114Z,96508.03
2023-03-31T17:38:37.098Z,96508.88
2023-03-31T17:44:02.124Z,96515.69
2023-03-31T17:49:26.184Z,96529.56
2023-03-31T17:54:54.108Z,96535.97
2023-03-31T18:00:22.278Z,96537.59
2023-03-31T18:05:48.104Z,96550.38
2023-03-31T18:11:16.123Z,96559.66
2023-03-31T18:16:41.139Z,96581.13
2023-03-31T18:22:05.216Z,96585.22
2023-03-31T18:27:36.073Z,96594.28
2023-03-31T18:33:01.214Z,96598.78
2023-03-31T18:38:27.117Z,96581.84
2023-03-31T18:43:54.119Z,96592.13
2023-03-31T18:49:20.113Z,96598.72
2023-03-31T18:54:45.228Z,96601.81
2023-03-31T19:00:14.244Z,96609.56
2023-03-31T19:05:38.109Z,96632.69
2023-03-31T19:11:13.147Z,96633.31
2023-03-31T19:16:48.327Z,96651.09
2023-03-31T19:22:14.120Z,96644.31
2023-03-31T19:27:38.181Z,96647.38
2023-03-31T19:33:08.159Z,96645.34
2023-03-31T19:38:38.157Z,96655.06
2023-03-31T19:44:03.139Z,96647.38
2023-03-31T19:49:30.163Z,96642.66
2023-03-31T19:54:56.031Z,96635.56
2023-03-31T20:00:25.196Z,96634.72
2023-03-31T20:05:53.220Z,96614.25
2023-03-31T20:11:19.350Z,96599.44
2023-03-31T20:16:45.147Z,96601.91
2023-03-31T20:22:13.166Z,96600.69
2023-03-31T20:27:38.212Z,96599.44
2023-03-31T20:33:03.175Z,96592.78
2023-03-31T20:38:31.162Z,96596.91
2023-03-31T20:43:57.183Z,96602.28
2023-03-31T20:49:22.265Z,96605.13
2023-03-31T20:54:49.233Z,96607.22
2023-03-31T21:00:15.223Z,96613.41
2023-03-31T21:05:39.346Z,96623.88
2023-03-31T21:11:08.289Z,96618.28
2023-03-31T21:16:33.262Z,96619.94
2023-03-31T21:21:58.217Z,96612.91
2023-03-31T21:27:26.209Z,96613.94
2023-03-31T21:32:51.343Z,96616.34
2023-03-31T21:38:15.334Z,96613.94
2023-03-31T21:43:44.230Z,96609.16
2023-03-31T21:49:09.196Z,96606.69
2023-03-31T21:54:34.278Z,96606.03
2023-03-31T22:00:01.260Z,96606.63
2023-03-31T22:05:26.205Z,96614.19
2023-03-31T22:10:51.313Z,96603.03
2023-03-31T22:16:25.294Z,96617.09
2023-03-31T22:21:52.198Z,96618.25
2023-03-31T22:27:17.231Z,96624.00
2023-03-31T22:32:44.313Z,96608.28
2023-03-31T22:38:09.226Z,96616.88
2023-03-31T22:43:34.255Z,96617.28
2023-03-31T22:49:02.229Z,96628.63
2023-03-31T22:54:29.219Z,96623.75
2023-03-31T22:59:54.237Z,96636.50
2023-03-31T23:05:22.236Z,96630.28
2023-03-31T23:10:47.244Z,96620.88
2023-03-31T23:16:13.317Z,96613.97
2023-03-31T23:21:41.276Z,96618.31
2023-03-31T23:27:05.253Z,96611.94
2023-03-31T23:32:30.249Z,96613.19
2023-03-31T23:37:57.353Z,96598.34
2023-03-31T23:43:23.260Z,96592.59
2023-03-31T23:48:49.276Z,96587.28
2023-03-31T23:54:17.263Z,96594.13
2023-03-31T23:59:41.267Z,96586.75
